TIB1082 SBGR-SBSM
Flight info
| Callsign | TIB1082 |
|---|---|
| Flight time | 1h 34m |
| Altitude | 30000 |
| Route | UBSOD UZ38 ARTUT UM400 UMKUR UN741 PUBED |
| Aircraft | E75L/M-SDE3GILORVW/S |
Departure
| Time | 2026-05-07 21:53 |
|---|---|
| Airport | São Paulo/Guarulhos–Governor André Franco Montoro International Airport (SBGR) |
Arrival
| Time | 2026-05-07 23:27 |
|---|---|
| Airport | Santa Maria Airport (SBSM) |
| Time | Latitude | Longitude | Altitude | Speed | Heading |
|---|---|---|---|---|---|
| 2026-05-07 21:27 | -23.42800 | -46.48549 | 2445 ft | 0 kts | 275° |
| 2026-05-07 21:42 | -23.42800 | -46.48550 | 2445 ft | 0 kts | 275° |
| 2026-05-07 21:42 | -23.42801 | -46.48539 | 2445 ft | 2 kts | 275° |
| 2026-05-07 21:42 | -23.42802 | -46.48528 | 2445 ft | 2 kts | 270° |
| 2026-05-07 21:43 | -23.42798 | -46.48513 | 2446 ft | 2 kts | 236° |
| 2026-05-07 21:43 | -23.42787 | -46.48502 | 2446 ft | 2 kts | 205° |
| 2026-05-07 21:43 | -23.42775 | -46.48499 | 2446 ft | 1 kts | 181° |
| 2026-05-07 21:43 | -23.42773 | -46.48499 | 2446 ft | 0 kts | 180° |
| 2026-05-07 21:46 | -23.42774 | -46.48499 | 2446 ft | 0 kts | 180° |
| 2026-05-07 21:46 | -23.42789 | -46.48499 | 2446 ft | 4 kts | 173° |
| 2026-05-07 21:46 | -23.42835 | -46.48481 | 2445 ft | 8 kts | 158° |
| 2026-05-07 21:47 | -23.42900 | -46.48457 | 2445 ft | 10 kts | 168° |
| 2026-05-07 21:47 | -23.42975 | -46.48452 | 2443 ft | 11 kts | 179° |
| 2026-05-07 21:47 | -23.43050 | -46.48446 | 2443 ft | 4 kts | 164° |
| 2026-05-07 21:47 | -23.43081 | -46.48436 | 2443 ft | 4 kts | 163° |
| 2026-05-07 21:48 | -23.43111 | -46.48427 | 2443 ft | 4 kts | 162° |
| 2026-05-07 21:48 | -23.43147 | -46.48415 | 2443 ft | 5 kts | 163° |
| 2026-05-07 21:48 | -23.43183 | -46.48403 | 2444 ft | 4 kts | 163° |
| 2026-05-07 21:48 | -23.43210 | -46.48395 | 2444 ft | 3 kts | 164° |
| 2026-05-07 21:49 | -23.43232 | -46.48389 | 2445 ft | 4 kts | 163° |
| 2026-05-07 21:49 | -23.43284 | -46.48372 | 2446 ft | 8 kts | 163° |
| 2026-05-07 21:49 | -23.43292 | -46.48370 | 2446 ft | 0 kts | 163° |
| 2026-05-07 21:50 | -23.43292 | -46.48369 | 2446 ft | 0 kts | 163° |
| 2026-05-07 21:50 | -23.43307 | -46.48364 | 2447 ft | 4 kts | 163° |
| 2026-05-07 21:51 | -23.43350 | -46.48351 | 2448 ft | 7 kts | 164° |
| 2026-05-07 21:51 | -23.43407 | -46.48332 | 2449 ft | 8 kts | 145° |
| 2026-05-07 21:51 | -23.43417 | -46.48291 | 2450 ft | 0 kts | 69° |
| 2026-05-07 21:51 | -23.43417 | -46.48290 | 2450 ft | 0 kts | 69° |
| 2026-05-07 21:52 | -23.43411 | -46.48272 | 2450 ft | 11 kts | 72° |
| 2026-05-07 21:52 | -23.43315 | -46.47926 | 2450 ft | 80 kts | 73° |
| 2026-05-07 21:52 | -23.43101 | -46.47134 | 2450 ft | 135 kts | 73° |
| 2026-05-07 21:52 | -23.42813 | -46.46003 | 2596 ft | 163 kts | 73° |
| 2026-05-07 21:53 | -23.42499 | -46.44794 | 3082 ft | 172 kts | 68° |
| 2026-05-07 21:53 | -23.42095 | -46.43499 | 3469 ft | 190 kts | 68° |
| 2026-05-07 21:53 | -23.41688 | -46.42152 | 4156 ft | 188 kts | 68° |
| 2026-05-07 21:53 | -23.41266 | -46.40733 | 4442 ft | 207 kts | 68° |
| 2026-05-07 21:54 | -23.40815 | -46.39189 | 4811 ft | 222 kts | 68° |
| 2026-05-07 21:54 | -23.40795 | -46.37470 | 5176 ft | 246 kts | 106° |
| 2026-05-07 21:54 | -23.41875 | -46.35938 | 5628 ft | 268 kts | 144° |
| 2026-05-07 21:54 | -23.43705 | -46.35267 | 5864 ft | 292 kts | 180° |
| 2026-05-07 21:55 | -23.45693 | -46.35809 | 6244 ft | 301 kts | 215° |
| 2026-05-07 21:55 | -23.47108 | -46.37423 | 6848 ft | 295 kts | 248° |
| 2026-05-07 21:55 | -23.47898 | -46.39466 | 7605 ft | 291 kts | 252° |
| 2026-05-07 21:55 | -23.48646 | -46.41508 | 8317 ft | 291 kts | 252° |
| 2026-05-07 21:56 | -23.49394 | -46.43551 | 8990 ft | 291 kts | 252° |
| 2026-05-07 21:56 | -23.50135 | -46.45581 | 9599 ft | 293 kts | 252° |
| 2026-05-07 21:56 | -23.50952 | -46.47635 | 10156 ft | 300 kts | 244° |
| 2026-05-07 21:56 | -23.52196 | -46.49486 | 10644 ft | 309 kts | 230° |
| 2026-05-07 21:57 | -23.53750 | -46.51176 | 11062 ft | 319 kts | 224° |
| 2026-05-07 21:57 | -23.55456 | -46.52800 | 11453 ft | 328 kts | 222° |
| 2026-05-07 21:57 | -23.57237 | -46.54401 | 11835 ft | 337 kts | 220° |
| 2026-05-07 21:57 | -23.59079 | -46.56017 | 12242 ft | 344 kts | 220° |
| 2026-05-07 21:58 | -23.60971 | -46.57663 | 12679 ft | 350 kts | 219° |
| 2026-05-07 21:58 | -23.62915 | -46.59347 | 13159 ft | 353 kts | 219° |
| 2026-05-07 21:58 | -23.64858 | -46.61029 | 13645 ft | 356 kts | 219° |
| 2026-05-07 21:58 | -23.66815 | -46.62722 | 14157 ft | 358 kts | 219° |
| 2026-05-07 21:59 | -23.68776 | -46.64420 | 14649 ft | 361 kts | 219° |
| 2026-05-07 21:59 | -23.70749 | -46.66129 | 15177 ft | 361 kts | 219° |
| 2026-05-07 21:59 | -23.72734 | -46.67849 | 15677 ft | 362 kts | 219° |
| 2026-05-07 21:59 | -23.74712 | -46.69563 | 16123 ft | 365 kts | 220° |
| 2026-05-07 22:00 | -23.76721 | -46.71305 | 16568 ft | 367 kts | 220° |
| 2026-05-07 22:00 | -23.78729 | -46.73047 | 17015 ft | 370 kts | 220° |
| 2026-05-07 22:00 | -23.80755 | -46.74804 | 17444 ft | 373 kts | 220° |
| 2026-05-07 22:00 | -23.82780 | -46.76562 | 17936 ft | 374 kts | 220° |
| 2026-05-07 22:01 | -23.84813 | -46.78329 | 18422 ft | 374 kts | 220° |
| 2026-05-07 22:01 | -23.86850 | -46.80098 | 18936 ft | 374 kts | 220° |
| 2026-05-07 22:01 | -23.88898 | -46.81878 | 19435 ft | 373 kts | 220° |
| 2026-05-07 22:01 | -23.90927 | -46.83643 | 19909 ft | 373 kts | 221° |
| 2026-05-07 22:02 | -23.92950 | -46.85403 | 20372 ft | 373 kts | 221° |
| 2026-05-07 22:02 | -23.95024 | -46.87208 | 20829 ft | 373 kts | 221° |
| 2026-05-07 22:02 | -23.97064 | -46.88983 | 21270 ft | 373 kts | 221° |
| 2026-05-07 22:02 | -23.99080 | -46.90740 | 21692 ft | 374 kts | 221° |
| 2026-05-07 22:03 | -24.01113 | -46.92511 | 22119 ft | 374 kts | 221° |
| 2026-05-07 22:03 | -24.03172 | -46.94306 | 22525 ft | 374 kts | 221° |
| 2026-05-07 22:03 | -24.05195 | -46.96071 | 22932 ft | 375 kts | 221° |
| 2026-05-07 22:03 | -24.07247 | -46.97861 | 23282 ft | 377 kts | 221° |
| 2026-05-07 22:04 | -24.09304 | -46.99657 | 23642 ft | 378 kts | 221° |
| 2026-05-07 22:04 | -24.11391 | -47.01479 | 24006 ft | 379 kts | 221° |
| 2026-05-07 22:04 | -24.13474 | -47.03299 | 24350 ft | 381 kts | 221° |
| 2026-05-07 22:04 | -24.15543 | -47.05107 | 24686 ft | 382 kts | 221° |
| 2026-05-07 22:05 | -24.17626 | -47.06928 | 25002 ft | 384 kts | 221° |
| 2026-05-07 22:05 | -24.19714 | -47.08755 | 25302 ft | 386 kts | 221° |
| 2026-05-07 22:05 | -24.21810 | -47.10589 | 25610 ft | 388 kts | 221° |
| 2026-05-07 22:05 | -24.23912 | -47.12429 | 25908 ft | 389 kts | 221° |
| 2026-05-07 22:06 | -24.26044 | -47.14276 | 26226 ft | 391 kts | 218° |
| 2026-05-07 22:06 | -24.28330 | -47.15905 | 26510 ft | 394 kts | 216° |
| 2026-05-07 22:06 | -24.30667 | -47.17528 | 26830 ft | 395 kts | 216° |
| 2026-05-07 22:06 | -24.32988 | -47.19139 | 27109 ft | 396 kts | 215° |
| 2026-05-07 22:07 | -24.35314 | -47.20755 | 27391 ft | 398 kts | 215° |
| 2026-05-07 22:07 | -24.37662 | -47.22386 | 27671 ft | 399 kts | 215° |
| 2026-05-07 22:07 | -24.39986 | -47.24001 | 27927 ft | 401 kts | 215° |
| 2026-05-07 22:07 | -24.42353 | -47.25647 | 28213 ft | 401 kts | 215° |
| 2026-05-07 22:08 | -24.44739 | -47.27307 | 28493 ft | 402 kts | 215° |
| 2026-05-07 22:08 | -24.47097 | -47.28948 | 28756 ft | 403 kts | 216° |
| 2026-05-07 22:08 | -24.49465 | -47.30597 | 29016 ft | 404 kts | 215° |
| 2026-05-07 22:08 | -24.51822 | -47.32238 | 29266 ft | 406 kts | 216° |
| 2026-05-07 22:09 | -24.54230 | -47.33917 | 29500 ft | 407 kts | 216° |
| 2026-05-07 22:09 | -24.56611 | -47.35577 | 29768 ft | 408 kts | 216° |
| 2026-05-07 22:09 | -24.59011 | -47.37251 | 29893 ft | 404 kts | 216° |
| 2026-05-07 22:09 | -24.61389 | -47.38911 | 29916 ft | 410 kts | 216° |
| 2026-05-07 22:10 | -24.66281 | -47.42329 | 29916 ft | 422 kts | 216° |
| 2026-05-07 22:10 | -24.71314 | -47.45846 | 29910 ft | 434 kts | 216° |
| 2026-05-07 22:11 | -24.76468 | -47.49452 | 29901 ft | 440 kts | 216° |
| 2026-05-07 22:11 | -24.81642 | -47.53077 | 29888 ft | 439 kts | 216° |
| 2026-05-07 22:12 | -24.86788 | -47.56684 | 29886 ft | 438 kts | 216° |
| 2026-05-07 22:12 | -24.91923 | -47.60288 | 29881 ft | 438 kts | 216° |
| 2026-05-07 22:13 | -24.97089 | -47.63918 | 29878 ft | 439 kts | 216° |
| 2026-05-07 22:13 | -25.02259 | -47.67554 | 29882 ft | 439 kts | 216° |
| 2026-05-07 22:14 | -25.07390 | -47.71166 | 29870 ft | 439 kts | 217° |
| 2026-05-07 22:14 | -25.12553 | -47.74804 | 29872 ft | 439 kts | 216° |
| 2026-05-07 22:15 | -25.17736 | -47.78460 | 29879 ft | 440 kts | 217° |
| 2026-05-07 22:15 | -25.22901 | -47.82107 | 29886 ft | 439 kts | 216° |
| 2026-05-07 22:16 | -25.28056 | -47.85751 | 29883 ft | 440 kts | 217° |
| 2026-05-07 22:16 | -25.33243 | -47.89422 | 29883 ft | 440 kts | 217° |
| 2026-05-07 22:17 | -25.38390 | -47.93070 | 29882 ft | 440 kts | 217° |
| 2026-05-07 22:17 | -25.43554 | -47.96734 | 29876 ft | 439 kts | 217° |
| 2026-05-07 22:18 | -25.51302 | -48.02239 | 29876 ft | 441 kts | 217° |
| 2026-05-07 22:19 | -25.56487 | -48.05927 | 29870 ft | 441 kts | 217° |
| 2026-05-07 22:19 | -25.61389 | -48.09906 | 29876 ft | 435 kts | 229° |
| 2026-05-07 22:20 | -25.64833 | -48.15274 | 29870 ft | 426 kts | 246° |
| 2026-05-07 22:20 | -25.68079 | -48.20822 | 29886 ft | 434 kts | 231° |
| 2026-05-07 22:21 | -25.72898 | -48.24934 | 29880 ft | 445 kts | 212° |
| 2026-05-07 22:21 | -25.78837 | -48.27113 | 29877 ft | 456 kts | 193° |
| 2026-05-07 22:22 | -25.85275 | -48.27632 | 29868 ft | 460 kts | 192° |
| 2026-05-07 22:22 | -25.91313 | -48.29551 | 29871 ft | 446 kts | 211° |
| 2026-05-07 22:23 | -25.96273 | -48.33481 | 29867 ft | 435 kts | 229° |
| 2026-05-07 22:23 | -26.01053 | -48.37713 | 29873 ft | 443 kts | 218° |
| 2026-05-07 22:24 | -26.06212 | -48.41483 | 29865 ft | 443 kts | 217° |
| 2026-05-07 22:24 | -26.11387 | -48.45209 | 29861 ft | 442 kts | 217° |
| 2026-05-07 22:25 | -26.16536 | -48.48917 | 29872 ft | 441 kts | 217° |
| 2026-05-07 22:25 | -26.21724 | -48.52657 | 29878 ft | 442 kts | 217° |
| 2026-05-07 22:26 | -26.26864 | -48.56364 | 29880 ft | 443 kts | 217° |
| 2026-05-07 22:26 | -26.32048 | -48.60109 | 29866 ft | 443 kts | 218° |
| 2026-05-07 22:27 | -26.37248 | -48.63868 | 29861 ft | 445 kts | 218° |
| 2026-05-07 22:27 | -26.42448 | -48.67633 | 29872 ft | 445 kts | 218° |
| 2026-05-07 22:28 | -26.47641 | -48.71395 | 29868 ft | 444 kts | 218° |
| 2026-05-07 22:28 | -26.52821 | -48.75153 | 29873 ft | 446 kts | 218° |
| 2026-05-07 22:29 | -26.58050 | -48.78950 | 29873 ft | 443 kts | 218° |
| 2026-05-07 22:29 | -26.63217 | -48.82707 | 29891 ft | 447 kts | 218° |
| 2026-05-07 22:30 | -26.68156 | -48.86882 | 29895 ft | 439 kts | 231° |
| 2026-05-07 22:30 | -26.71518 | -48.92438 | 29905 ft | 426 kts | 250° |
| 2026-05-07 22:31 | -26.72873 | -48.98766 | 29908 ft | 418 kts | 269° |
| 2026-05-07 22:31 | -26.72102 | -49.05182 | 29899 ft | 416 kts | 289° |
| 2026-05-07 22:32 | -26.69314 | -49.10808 | 29904 ft | 419 kts | 307° |
| 2026-05-07 22:32 | -26.64927 | -49.15067 | 29911 ft | 422 kts | 321° |
| 2026-05-07 22:33 | -26.60167 | -49.18933 | 29907 ft | 421 kts | 317° |
| 2026-05-07 22:33 | -26.56401 | -49.23826 | 29926 ft | 415 kts | 298° |
| 2026-05-07 22:34 | -26.54367 | -49.29839 | 29943 ft | 414 kts | 287° |
| 2026-05-07 22:34 | -26.52265 | -49.35813 | 29950 ft | 413 kts | 292° |
| 2026-05-07 22:35 | -26.49936 | -49.41677 | 29973 ft | 413 kts | 293° |
| 2026-05-07 22:35 | -26.47590 | -49.47504 | 29988 ft | 412 kts | 293° |
| 2026-05-07 22:36 | -26.45219 | -49.53378 | 30004 ft | 415 kts | 293° |
| 2026-05-07 22:36 | -26.42855 | -49.59226 | 30008 ft | 414 kts | 293° |
| 2026-05-07 22:37 | -26.40482 | -49.65089 | 30001 ft | 412 kts | 294° |
| 2026-05-07 22:37 | -26.38126 | -49.70900 | 29995 ft | 413 kts | 294° |
| 2026-05-07 22:38 | -26.35944 | -49.76820 | 29989 ft | 411 kts | 285° |
| 2026-05-07 22:38 | -26.35449 | -49.83154 | 29999 ft | 415 kts | 269° |
| 2026-05-07 22:39 | -26.36813 | -49.89384 | 29991 ft | 422 kts | 250° |
| 2026-05-07 22:39 | -26.39569 | -49.95228 | 29977 ft | 424 kts | 249° |
| 2026-05-07 22:40 | -26.42073 | -50.01206 | 29971 ft | 424 kts | 250° |
| 2026-05-07 22:40 | -26.44504 | -50.07156 | 29963 ft | 423 kts | 250° |
| 2026-05-07 22:41 | -26.46938 | -50.13142 | 29962 ft | 425 kts | 250° |
| 2026-05-07 22:41 | -26.49374 | -50.19137 | 29965 ft | 425 kts | 250° |
| 2026-05-07 22:42 | -26.51806 | -50.25135 | 29967 ft | 424 kts | 250° |
| 2026-05-07 22:42 | -26.54230 | -50.31120 | 29970 ft | 426 kts | 250° |
| 2026-05-07 22:43 | -26.56662 | -50.37147 | 29980 ft | 423 kts | 251° |
| 2026-05-07 22:43 | -26.59049 | -50.43180 | 29984 ft | 424 kts | 250° |
| 2026-05-07 22:44 | -26.61429 | -50.49197 | 29991 ft | 423 kts | 251° |
| 2026-05-07 22:44 | -26.63801 | -50.55191 | 29994 ft | 423 kts | 250° |
| 2026-05-07 22:45 | -26.66213 | -50.61183 | 29999 ft | 421 kts | 250° |
| 2026-05-07 22:45 | -26.68610 | -50.67152 | 30013 ft | 423 kts | 251° |
| 2026-05-07 22:46 | -26.71007 | -50.73134 | 30022 ft | 425 kts | 251° |
| 2026-05-07 22:46 | -26.73472 | -50.79137 | 30022 ft | 425 kts | 246° |
| 2026-05-07 22:47 | -26.77226 | -50.84395 | 30021 ft | 443 kts | 228° |
| 2026-05-07 22:47 | -26.82483 | -50.88219 | 30015 ft | 455 kts | 213° |
| 2026-05-07 22:48 | -26.88003 | -50.91685 | 29991 ft | 453 kts | 217° |
| 2026-05-07 22:48 | -26.93450 | -50.95295 | 29976 ft | 455 kts | 217° |
| 2026-05-07 22:49 | -26.98909 | -50.98931 | 29966 ft | 452 kts | 218° |
| 2026-05-07 22:49 | -27.04354 | -51.02566 | 29959 ft | 456 kts | 218° |
| 2026-05-07 22:50 | -27.09787 | -51.06196 | 29962 ft | 454 kts | 218° |
| 2026-05-07 22:50 | -27.15232 | -51.09838 | 29951 ft | 456 kts | 218° |
| 2026-05-07 22:51 | -27.20708 | -51.13505 | 29949 ft | 453 kts | 218° |
| 2026-05-07 22:51 | -27.26145 | -51.17150 | 29946 ft | 457 kts | 218° |
| 2026-05-07 22:52 | -27.31570 | -51.20790 | 29945 ft | 453 kts | 218° |
| 2026-05-07 22:52 | -27.36884 | -51.24670 | 29936 ft | 452 kts | 222° |
| 2026-05-07 22:53 | -27.42057 | -51.28707 | 29922 ft | 450 kts | 221° |
| 2026-05-07 22:53 | -27.47238 | -51.32737 | 29916 ft | 451 kts | 221° |
| 2026-05-07 22:54 | -27.52389 | -51.36747 | 29912 ft | 451 kts | 221° |
| 2026-05-07 22:54 | -27.57602 | -51.40808 | 29896 ft | 453 kts | 221° |
| 2026-05-07 22:55 | -27.62803 | -51.44867 | 29893 ft | 454 kts | 221° |
| 2026-05-07 22:55 | -27.67988 | -51.48915 | 29891 ft | 453 kts | 221° |
| 2026-05-07 22:56 | -27.73206 | -51.52997 | 29888 ft | 457 kts | 222° |
| 2026-05-07 22:56 | -27.78400 | -51.57063 | 29875 ft | 453 kts | 222° |
| 2026-05-07 22:57 | -27.83650 | -51.61179 | 29872 ft | 457 kts | 221° |
| 2026-05-07 22:57 | -27.88853 | -51.65262 | 29878 ft | 455 kts | 222° |
| 2026-05-07 22:58 | -27.94078 | -51.69368 | 29890 ft | 456 kts | 222° |
| 2026-05-07 22:58 | -27.99303 | -51.73479 | 29879 ft | 459 kts | 222° |
| 2026-05-07 22:59 | -28.04566 | -51.77623 | 29867 ft | 459 kts | 223° |
| 2026-05-07 22:59 | -28.09768 | -51.81725 | 29874 ft | 457 kts | 223° |
| 2026-05-07 23:00 | -28.14973 | -51.85835 | 29856 ft | 455 kts | 223° |
| 2026-05-07 23:00 | -28.20214 | -51.89978 | 29852 ft | 455 kts | 223° |
| 2026-05-07 23:01 | -28.25389 | -51.94075 | 29847 ft | 458 kts | 223° |
| 2026-05-07 23:01 | -28.30611 | -51.98213 | 29836 ft | 458 kts | 223° |
| 2026-05-07 23:02 | -28.35844 | -52.02364 | 29833 ft | 456 kts | 223° |
| 2026-05-07 23:02 | -28.41085 | -52.06527 | 29826 ft | 458 kts | 223° |
| 2026-05-07 23:03 | -28.46298 | -52.10674 | 29821 ft | 459 kts | 223° |
| 2026-05-07 23:03 | -28.51495 | -52.14810 | 29787 ft | 448 kts | 223° |
| 2026-05-07 23:04 | -28.56557 | -52.18847 | 29797 ft | 443 kts | 224° |
| 2026-05-07 23:04 | -28.59102 | -52.20880 | 29575 ft | 449 kts | 223° |
| 2026-05-07 23:04 | -28.61673 | -52.22932 | 29092 ft | 446 kts | 223° |
| 2026-05-07 23:04 | -28.64059 | -52.25069 | 28611 ft | 435 kts | 229° |
| 2026-05-07 23:05 | -28.66356 | -52.27323 | 28131 ft | 433 kts | 229° |
| 2026-05-07 23:05 | -28.68626 | -52.29544 | 27655 ft | 432 kts | 229° |
| 2026-05-07 23:05 | -28.70954 | -52.31821 | 27156 ft | 429 kts | 229° |
| 2026-05-07 23:05 | -28.73238 | -52.34057 | 26674 ft | 427 kts | 229° |
| 2026-05-07 23:06 | -28.75531 | -52.36301 | 26202 ft | 423 kts | 229° |
| 2026-05-07 23:06 | -28.77800 | -52.38525 | 25723 ft | 423 kts | 229° |
| 2026-05-07 23:06 | -28.80061 | -52.40741 | 25245 ft | 420 kts | 230° |
| 2026-05-07 23:06 | -28.82283 | -52.42921 | 24779 ft | 418 kts | 229° |
| 2026-05-07 23:07 | -28.84527 | -52.45123 | 24293 ft | 413 kts | 230° |
| 2026-05-07 23:07 | -28.86727 | -52.47284 | 23826 ft | 412 kts | 230° |
| 2026-05-07 23:07 | -28.88922 | -52.49441 | 23358 ft | 410 kts | 229° |
| 2026-05-07 23:07 | -28.91114 | -52.51595 | 22895 ft | 408 kts | 230° |
| 2026-05-07 23:08 | -28.93277 | -52.53724 | 22442 ft | 408 kts | 230° |
| 2026-05-07 23:08 | -28.95468 | -52.55881 | 21967 ft | 405 kts | 229° |
| 2026-05-07 23:08 | -28.97640 | -52.58020 | 21511 ft | 405 kts | 230° |
| 2026-05-07 23:08 | -28.99780 | -52.60128 | 21056 ft | 401 kts | 229° |
| 2026-05-07 23:09 | -29.01939 | -52.62257 | 20608 ft | 399 kts | 229° |
| 2026-05-07 23:09 | -29.04089 | -52.64378 | 20152 ft | 399 kts | 229° |
| 2026-05-07 23:09 | -29.06216 | -52.66477 | 19712 ft | 398 kts | 230° |
| 2026-05-07 23:09 | -29.08321 | -52.68556 | 19269 ft | 394 kts | 230° |
| 2026-05-07 23:10 | -29.10425 | -52.70636 | 18825 ft | 393 kts | 230° |
| 2026-05-07 23:10 | -29.12508 | -52.72697 | 18378 ft | 395 kts | 230° |
| 2026-05-07 23:10 | -29.14624 | -52.74788 | 17925 ft | 392 kts | 230° |
| 2026-05-07 23:10 | -29.16721 | -52.76864 | 17482 ft | 389 kts | 230° |
| 2026-05-07 23:11 | -29.18799 | -52.78922 | 17047 ft | 389 kts | 230° |
| 2026-05-07 23:11 | -29.20872 | -52.80976 | 16609 ft | 385 kts | 230° |
| 2026-05-07 23:11 | -29.22919 | -52.83006 | 16173 ft | 382 kts | 229° |
| 2026-05-07 23:11 | -29.24908 | -52.84978 | 15755 ft | 379 kts | 230° |
| 2026-05-07 23:12 | -29.26896 | -52.86952 | 15336 ft | 377 kts | 230° |
| 2026-05-07 23:12 | -29.28882 | -52.88925 | 14912 ft | 373 kts | 229° |
| 2026-05-07 23:12 | -29.30815 | -52.90845 | 14505 ft | 369 kts | 230° |
| 2026-05-07 23:12 | -29.32773 | -52.92792 | 14091 ft | 366 kts | 229° |
| 2026-05-07 23:13 | -29.34731 | -52.94740 | 13684 ft | 364 kts | 229° |
| 2026-05-07 23:13 | -29.36624 | -52.96623 | 13291 ft | 359 kts | 229° |
| 2026-05-07 23:13 | -29.38519 | -52.98510 | 12889 ft | 355 kts | 230° |
| 2026-05-07 23:13 | -29.40375 | -53.00358 | 12490 ft | 353 kts | 230° |
| 2026-05-07 23:14 | -29.42259 | -53.02235 | 12097 ft | 349 kts | 230° |
| 2026-05-07 23:14 | -29.44122 | -53.04095 | 11693 ft | 347 kts | 230° |
| 2026-05-07 23:14 | -29.45935 | -53.05903 | 11297 ft | 341 kts | 230° |
| 2026-05-07 23:14 | -29.47805 | -53.07767 | 10904 ft | 332 kts | 231° |
| 2026-05-07 23:15 | -29.49581 | -53.09541 | 10526 ft | 321 kts | 231° |
| 2026-05-07 23:15 | -29.51300 | -53.11258 | 10162 ft | 310 kts | 232° |
| 2026-05-07 23:15 | -29.52924 | -53.12880 | 9814 ft | 301 kts | 232° |
| 2026-05-07 23:15 | -29.54551 | -53.14507 | 9467 ft | 291 kts | 232° |
| 2026-05-07 23:16 | -29.56119 | -53.16078 | 9140 ft | 289 kts | 232° |
| 2026-05-07 23:16 | -29.57659 | -53.17623 | 8808 ft | 291 kts | 232° |
| 2026-05-07 23:16 | -29.59167 | -53.19133 | 8490 ft | 288 kts | 232° |
| 2026-05-07 23:16 | -29.60748 | -53.20714 | 8137 ft | 281 kts | 233° |
| 2026-05-07 23:17 | -29.62259 | -53.22228 | 7810 ft | 273 kts | 233° |
| 2026-05-07 23:17 | -29.63714 | -53.23686 | 7499 ft | 266 kts | 233° |
| 2026-05-07 23:17 | -29.65109 | -53.25084 | 7217 ft | 260 kts | 234° |
| 2026-05-07 23:17 | -29.66519 | -53.26499 | 6948 ft | 251 kts | 234° |
| 2026-05-07 23:18 | -29.67893 | -53.27878 | 6618 ft | 245 kts | 234° |
| 2026-05-07 23:18 | -29.69191 | -53.29176 | 6542 ft | 228 kts | 235° |
| 2026-05-07 23:18 | -29.70375 | -53.30362 | 6405 ft | 216 kts | 236° |
| 2026-05-07 23:18 | -29.71527 | -53.31520 | 6258 ft | 205 kts | 237° |
| 2026-05-07 23:19 | -29.72579 | -53.32694 | 5988 ft | 185 kts | 256° |
| 2026-05-07 23:19 | -29.72820 | -53.33960 | 5834 ft | 146 kts | 285° |
| 2026-05-07 23:19 | -29.72803 | -53.35126 | 5697 ft | 143 kts | 285° |
| 2026-05-07 23:19 | -29.72769 | -53.36319 | 5559 ft | 145 kts | 285° |
| 2026-05-07 23:20 | -29.72726 | -53.37539 | 5401 ft | 145 kts | 285° |
| 2026-05-07 23:20 | -29.72677 | -53.38734 | 5235 ft | 145 kts | 285° |
| 2026-05-07 23:20 | -29.72624 | -53.39937 | 5064 ft | 145 kts | 285° |
| 2026-05-07 23:20 | -29.72568 | -53.41159 | 4894 ft | 146 kts | 285° |
| 2026-05-07 23:21 | -29.72509 | -53.42382 | 4710 ft | 145 kts | 285° |
| 2026-05-07 23:21 | -29.72452 | -53.43548 | 4543 ft | 144 kts | 285° |
| 2026-05-07 23:21 | -29.72391 | -53.44755 | 4384 ft | 145 kts | 285° |
| 2026-05-07 23:21 | -29.72329 | -53.46002 | 4230 ft | 139 kts | 285° |
| 2026-05-07 23:22 | -29.72274 | -53.47131 | 4091 ft | 135 kts | 285° |
| 2026-05-07 23:22 | -29.72218 | -53.48220 | 3882 ft | 133 kts | 284° |
| 2026-05-07 23:22 | -29.72161 | -53.49306 | 3698 ft | 133 kts | 285° |
| 2026-05-07 23:22 | -29.72103 | -53.50413 | 3505 ft | 135 kts | 285° |
| 2026-05-07 23:23 | -29.72050 | -53.51485 | 3280 ft | 123 kts | 285° |
| 2026-05-07 23:23 | -29.72001 | -53.52453 | 3098 ft | 118 kts | 285° |
| 2026-05-07 23:23 | -29.71948 | -53.53455 | 2960 ft | 118 kts | 284° |
| 2026-05-07 23:23 | -29.71893 | -53.54472 | 2822 ft | 123 kts | 283° |
| 2026-05-07 23:24 | -29.71841 | -53.55471 | 2657 ft | 120 kts | 283° |
| 2026-05-07 23:24 | -29.71788 | -53.56446 | 2517 ft | 123 kts | 284° |
| 2026-05-07 23:24 | -29.71736 | -53.57461 | 2328 ft | 120 kts | 282° |
| 2026-05-07 23:24 | -29.71684 | -53.58459 | 2126 ft | 120 kts | 282° |
| 2026-05-07 23:25 | -29.71631 | -53.59454 | 1970 ft | 120 kts | 281° |
| 2026-05-07 23:25 | -29.71577 | -53.60463 | 1796 ft | 123 kts | 281° |
| 2026-05-07 23:25 | -29.71523 | -53.61483 | 1577 ft | 126 kts | 280° |
| 2026-05-07 23:25 | -29.71471 | -53.62503 | 1396 ft | 124 kts | 281° |
| 2026-05-07 23:26 | -29.71415 | -53.63530 | 1198 ft | 128 kts | 279° |
| 2026-05-07 23:26 | -29.71361 | -53.64564 | 973 ft | 130 kts | 280° |
| 2026-05-07 23:26 | -29.71297 | -53.65622 | 645 ft | 131 kts | 281° |
| 2026-05-07 23:26 | -29.71269 | -53.66667 | 442 ft | 128 kts | 279° |
| 2026-05-07 23:27 | -29.71160 | -53.68400 | 291 ft | 46 kts | 275° |
| 2026-05-07 23:27 | -29.71137 | -53.68783 | 296 ft | 46 kts | 269° |
| 2026-05-07 23:27 | -29.71121 | -53.69138 | 300 ft | 42 kts | 274° |
| 2026-05-07 23:28 | -29.71106 | -53.69472 | 302 ft | 33 kts | 275° |
| 2026-05-07 23:28 | -29.71101 | -53.69567 | 303 ft | 7 kts | 275° |
| 2026-05-07 23:28 | -29.71085 | -53.69617 | 303 ft | 6 kts | 330° |
| 2026-05-07 23:28 | -29.71043 | -53.69618 | 304 ft | 5 kts | 10° |
| 2026-05-07 23:29 | -29.71005 | -53.69614 | 305 ft | 4 kts | 4° |
| 2026-05-07 23:29 | -29.70972 | -53.69611 | 305 ft | 5 kts | 3° |
| 2026-05-07 23:29 | -29.70954 | -53.69636 | 305 ft | 4 kts | 273° |
| 2026-05-07 23:29 | -29.70952 | -53.69685 | 305 ft | 8 kts | 272° |
| 2026-05-07 23:30 | -29.70948 | -53.69765 | 306 ft | 11 kts | 274° |
| 2026-05-07 23:30 | -29.70942 | -53.69873 | 306 ft | 15 kts | 274° |
| 2026-05-07 23:30 | -29.70935 | -53.70003 | 306 ft | 14 kts | 275° |
| 2026-05-07 23:30 | -29.70913 | -53.70048 | 307 ft | 5 kts | 23° |
| 2026-05-07 23:31 | -29.70899 | -53.70040 | 307 ft | 0 kts | 351° |
| 2026-05-07 23:31 | -29.70896 | -53.70042 | 307 ft | 1 kts | 333° |
| 2026-05-07 23:31 | -29.70887 | -53.70043 | 307 ft | 0 kts | 359° |
| 2026-05-07 23:31 | -29.70885 | -53.70043 | 307 ft | 0 kts | 1° |